createdAt,value
2018-09-22T00:00:26.117Z,84.55
2018-09-22T00:01:26.083Z,84.27
2018-09-22T00:02:25.946Z,84.65
2018-09-22T00:03:25.929Z,84.75
2018-09-22T00:04:25.784Z,84.55
2018-09-22T00:05:25.802Z,84.65
2018-09-22T00:06:25.629Z,84.75
2018-09-22T00:07:25.616Z,84.84
2018-09-22T00:08:25.480Z,85.03
2018-09-22T00:09:25.420Z,85.61
2018-09-22T00:10:25.300Z,85.32
2018-09-22T00:11:25.328Z,84.94
2018-09-22T00:12:25.137Z,85.22
2018-09-22T00:13:25.182Z,85.13
2018-09-22T00:14:24.992Z,85.03
2018-09-22T00:15:24.948Z,85.41
2018-09-22T00:16:24.825Z,85.32
2018-09-22T00:17:24.869Z,86.08
2018-09-22T00:18:24.654Z,86.18
2018-09-22T00:19:24.703Z,85.99
2018-09-22T00:20:24.493Z,85.51
2018-09-22T00:21:24.485Z,84.94
2018-09-22T00:22:24.342Z,85.80
2018-09-22T00:23:24.390Z,84.94
2018-09-22T00:24:24.206Z,84.84
2018-09-22T00:25:24.198Z,84.94
2018-09-22T00:26:24.016Z,84.55
2018-09-22T00:27:24.071Z,84.65
2018-09-22T00:28:23.853Z,85.13
2018-09-22T00:29:23.843Z,84.94
2018-09-22T00:30:23.692Z,85.03
2018-09-22T00:31:23.740Z,85.13
2018-09-22T00:32:23.528Z,85.22
2018-09-22T00:33:23.542Z,85.32
2018-09-22T00:34:23.389Z,85.80
2018-09-22T00:35:23.339Z,85.61
2018-09-22T00:36:23.219Z,85.32
2018-09-22T00:37:23.251Z,85.71
2018-09-22T00:38:23.045Z,85.89
2018-09-22T00:39:23.103Z,85.89
2018-09-22T00:40:22.885Z,86.28
2018-09-22T00:41:22.882Z,86.28
2018-09-22T00:42:22.720Z,86.37
2018-09-22T00:43:22.674Z,86.57
2018-09-22T00:44:22.576Z,86.57
2018-09-22T00:45:22.592Z,87.14
2018-09-22T00:46:22.420Z,87.14
2018-09-22T00:47:22.338Z,87.90
2018-09-22T00:48:22.243Z,88.38
2018-09-22T00:49:22.211Z,88.00
2018-09-22T00:50:22.092Z,88.76
2018-09-22T00:51:22.112Z,88.38
2018-09-22T00:52:21.922Z,88.95
2018-09-22T00:53:21.927Z,88.57
2018-09-22T00:54:21.751Z,88.86
2018-09-22T00:55:21.767Z,88.67
2018-09-22T00:56:21.609Z,88.53
2018-09-22T00:57:21.644Z,88.95
2018-09-22T00:58:21.435Z,88.86
2018-09-22T00:59:21.464Z,88.86
2018-09-22T01:00:21.343Z,88.81
2018-09-22T01:03:03.468Z,89.20
2018-09-22T01:04:03.466Z,89.67
2018-09-22T01:05:03.306Z,89.87
2018-09-22T01:06:03.306Z,89.87
2018-09-22T01:07:03.179Z,89.77
2018-09-22T01:08:03.175Z,89.77
2018-09-22T01:09:02.985Z,89.58
2018-09-22T01:10:02.987Z,89.96
2018-09-22T01:11:02.821Z,90.63
2018-09-22T01:12:02.833Z,90.34
2018-09-22T01:13:02.664Z,90.53
2018-09-22T01:14:02.730Z,90.06
2018-09-22T01:15:02.507Z,90.63
2018-09-22T01:16:02.584Z,90.63
2018-09-22T01:17:02.359Z,90.34
2018-09-22T01:18:02.333Z,90.44
2018-09-22T01:19:02.197Z,90.53
2018-09-22T01:20:02.141Z,90.92
2018-09-22T01:21:02.016Z,91.11
2018-09-22T01:22:03.005Z,90.82
2018-09-22T01:23:01.854Z,90.73
2018-09-22T01:24:01.854Z,91.02
2018-09-22T01:25:01.695Z,91.64
2018-09-22T01:26:01.667Z,91.30
2018-09-22T01:27:01.552Z,91.16
2018-09-22T01:29:43.484Z,91.74
2018-09-22T01:30:43.493Z,92.02
2018-09-22T01:31:43.330Z,91.93
2018-09-22T01:32:43.286Z,91.93
2018-09-22T01:33:43.384Z,91.30
2018-09-22T01:34:43.195Z,91.45
2018-09-22T01:35:42.998Z,92.02
2018-09-22T01:36:43.030Z,91.88
2018-09-22T01:37:42.848Z,92.11
2018-09-22T01:38:42.806Z,91.74
2018-09-22T01:39:42.701Z,91.74
2018-09-22T01:40:42.709Z,92.40
2018-09-22T01:41:42.508Z,92.79
2018-09-22T01:42:42.565Z,92.40
2018-09-22T01:43:42.344Z,92.02
2018-09-22T01:44:42.333Z,92.11
2018-09-22T01:45:42.180Z,91.93
2018-09-22T01:46:42.145Z,92.02
2018-09-22T01:47:42.050Z,91.54
2018-09-22T01:48:42.051Z,91.74
2018-09-22T01:49:41.856Z,92.11
2018-09-22T01:50:41.863Z,92.21
2018-09-22T01:51:41.723Z,92.21
2018-09-22T01:54:23.998Z,92.02
2018-09-22T01:55:23.975Z,92.40
2018-09-22T01:56:23.819Z,91.74
2018-09-22T02:00:06.996Z,91.93
2018-09-22T02:02:49.008Z,92.02
2018-09-22T02:03:53.036Z,91.83
2018-09-22T02:04:48.824Z,92.40
2018-09-22T02:05:51.564Z,92.50
2018-09-22T02:06:48.677Z,92.40
2018-09-22T02:07:48.661Z,92.79
2018-09-22T02:08:48.504Z,92.40
2018-09-22T02:09:48.541Z,92.59
2018-09-22T02:10:48.344Z,92.02
2018-09-22T02:11:48.355Z,92.79
2018-09-22T02:12:48.211Z,92.59
2018-09-22T02:13:48.220Z,92.21
2018-09-22T02:14:48.028Z,92.02
2018-09-22T02:15:48.013Z,92.11
2018-09-22T02:16:47.863Z,92.02
2018-09-22T02:17:47.877Z,92.40
2018-09-22T02:18:47.707Z,92.79
2018-09-22T02:19:47.687Z,92.30
2018-09-22T02:20:47.532Z,92.88
2018-09-22T02:21:47.492Z,92.59
2018-09-22T02:22:47.363Z,92.69
2018-09-22T02:23:47.331Z,92.69
2018-09-22T02:24:47.209Z,92.79
2018-09-22T02:25:47.215Z,92.88
2018-09-22T02:26:47.046Z,92.59
2018-09-22T02:27:47.030Z,92.69
2018-09-22T02:28:46.901Z,92.59
2018-09-22T02:29:46.835Z,92.50
2018-09-22T02:30:46.731Z,93.07
2018-09-22T02:31:46.741Z,92.88
2018-09-22T02:32:46.561Z,93.07
2018-09-22T02:33:46.577Z,92.69
2018-09-22T02:34:46.425Z,93.65
2018-09-22T02:35:46.361Z,93.45
2018-09-22T02:36:46.232Z,92.97
2018-09-22T02:37:46.271Z,93.02
2018-09-22T02:38:46.077Z,92.97
2018-09-22T02:39:46.115Z,92.88
2018-09-22T02:40:45.924Z,93.65
2018-09-22T02:41:45.911Z,92.55
2018-09-22T02:42:45.751Z,92.79
2018-09-22T02:43:45.803Z,93.07
2018-09-22T02:44:45.604Z,92.97
2018-09-22T02:45:45.603Z,92.88
2018-09-22T02:46:45.429Z,92.79
2018-09-22T02:47:45.415Z,93.45
2018-09-22T02:48:45.266Z,93.41
2018-09-22T02:49:45.276Z,93.26
2018-09-22T02:50:45.193Z,93.98
2018-09-22T02:53:27.010Z,93.79
2018-09-22T02:54:27.033Z,93.79
2018-09-22T02:55:26.855Z,94.07
2018-09-22T02:56:26.855Z,94.36
2018-09-22T02:57:26.670Z,93.60
2018-09-22T02:58:26.594Z,93.70
2018-09-22T02:59:26.509Z,93.60
2018-09-22T03:00:26.501Z,93.41
2018-09-22T03:01:26.358Z,93.41
2018-09-22T03:02:26.390Z,93.74
2018-09-22T03:03:26.187Z,93.98
2018-09-22T03:04:26.205Z,94.27
2018-09-22T03:05:26.040Z,94.07
2018-09-22T03:06:25.985Z,94.93
2018-09-22T03:07:25.882Z,94.46
2018-09-22T03:08:25.894Z,94.65
2018-09-22T03:09:25.700Z,94.65
2018-09-22T03:10:26.781Z,94.55
2018-09-22T03:11:25.548Z,94.74
2018-09-22T03:12:25.604Z,94.27
2018-09-22T03:21:49.158Z,94.74
2018-09-22T03:22:49.019Z,94.84
2018-09-22T03:23:49.032Z,94.46
2018-09-22T03:24:48.849Z,94.74
2018-09-22T03:25:48.867Z,94.65
2018-09-22T03:26:48.692Z,94.46
2018-09-22T03:27:48.647Z,94.65
2018-09-22T03:28:48.529Z,94.93
2018-09-22T03:29:48.564Z,94.74
2018-09-22T03:30:48.389Z,94.93
2018-09-22T03:31:48.372Z,94.65
2018-09-22T03:32:48.202Z,94.74
2018-09-22T03:33:48.181Z,94.74
2018-09-22T03:34:48.058Z,94.74
2018-09-22T03:35:48.034Z,94.65
2018-09-22T03:36:47.914Z,94.74
2018-09-22T03:37:47.898Z,94.74
2018-09-22T03:38:47.718Z,94.65
2018-09-22T03:39:47.713Z,94.65
2018-09-22T03:40:47.555Z,94.36
2018-09-22T03:41:47.543Z,94.51
2018-09-22T03:42:47.399Z,94.46
2018-09-22T03:43:47.427Z,94.65
2018-09-22T03:44:47.249Z,94.74
2018-09-22T03:45:47.241Z,94.93
2018-09-22T03:46:47.107Z,94.55
2018-09-22T03:47:47.043Z,94.65
2018-09-22T03:48:46.909Z,94.55
2018-09-22T03:49:46.968Z,94.84
2018-09-22T03:50:46.752Z,94.60
2018-09-22T03:51:46.760Z,93.84
2018-09-22T03:52:46.614Z,94.22
2018-09-22T03:53:46.577Z,93.84
2018-09-22T03:54:46.429Z,93.84
2018-09-22T03:57:28.638Z,94.41
2018-09-22T03:58:28.486Z,93.45
2018-09-22T03:59:28.349Z,93.55
2018-09-22T04:02:10.515Z,93.65
2018-09-22T04:03:32.539Z,93.07
2018-09-22T04:04:10.400Z,92.69
2018-09-22T04:05:10.266Z,93.36
2018-09-22T04:06:10.303Z,92.69
2018-09-22T04:08:35.538Z,93.45
2018-09-22T04:11:17.509Z,92.88
2018-09-22T04:13:59.546Z,92.79
2018-09-22T04:17:10.584Z,92.97
2018-09-22T04:19:46.641Z,93.65
2018-09-22T04:20:46.436Z,92.40
2018-09-22T04:21:46.456Z,92.11
2018-09-22T04:22:46.270Z,92.59
2018-09-22T04:23:46.293Z,93.26
2018-09-22T04:24:46.113Z,92.88
2018-09-22T04:25:46.063Z,92.40
2018-09-22T04:26:46.058Z,92.69
2018-09-22T04:27:45.974Z,92.02
2018-09-22T04:28:45.802Z,92.21
2018-09-22T04:29:45.786Z,92.11
2018-09-22T04:30:45.625Z,92.02
2018-09-22T04:31:45.599Z,92.30
2018-09-22T04:32:45.469Z,92.40
2018-09-22T04:33:46.467Z,92.88
2018-09-22T04:42:21.439Z,92.59
2018-09-22T04:43:21.274Z,92.50
2018-09-22T04:44:22.270Z,92.40
2018-09-22T04:45:21.116Z,92.02
2018-09-22T04:46:21.122Z,91.83
2018-09-22T04:47:20.947Z,92.21
2018-09-22T04:50:03.054Z,92.11
2018-09-22T04:52:49.045Z,92.88
2018-09-22T04:53:49.024Z,92.40
2018-09-22T04:54:48.928Z,92.40
2018-09-22T04:55:48.823Z,92.40
2018-09-22T04:56:48.702Z,92.30
2018-09-22T04:59:30.654Z,92.30
2018-09-22T05:00:30.443Z,92.21
2018-09-22T05:01:30.368Z,91.83
2018-09-22T05:02:30.286Z,91.83
2018-09-22T05:03:30.209Z,92.30
2018-09-22T05:04:30.140Z,92.40
2018-09-22T05:05:30.163Z,92.40
2018-09-22T05:06:29.972Z,92.97
2018-09-22T05:07:29.976Z,92.50
2018-09-22T05:08:29.814Z,93.07
2018-09-22T05:09:30.176Z,92.59
2018-09-22T05:10:29.678Z,93.07
2018-09-22T05:11:29.682Z,93.36
2018-09-22T05:12:29.473Z,92.50
2018-09-22T05:13:29.398Z,93.07
2018-09-22T05:14:29.323Z,92.69
2018-09-22T05:15:29.325Z,92.97
2018-09-22T05:16:29.154Z,92.59
2018-09-22T05:18:29.001Z,93.16
2018-09-22T05:19:29.019Z,93.55
2018-09-22T05:20:28.862Z,94.12
2018-09-22T05:21:28.759Z,94.02
2018-09-22T05:22:28.675Z,94.41
2018-09-22T05:23:28.640Z,93.55
2018-09-22T05:24:28.507Z,93.55
2018-09-22T05:25:28.586Z,94.12
2018-09-22T05:26:28.347Z,94.02
2018-09-22T05:27:28.353Z,94.12
2018-09-22T05:28:28.200Z,94.02
2018-09-22T05:29:28.120Z,94.02
2018-09-22T05:30:28.050Z,93.84
2018-09-22T05:31:28.056Z,93.84
2018-09-22T05:32:27.873Z,94.22
2018-09-22T05:33:27.897Z,94.46
2018-09-22T05:34:27.746Z,94.74
2018-09-22T05:35:27.702Z,94.84
2018-09-22T05:36:27.564Z,94.65
2018-09-22T05:37:27.735Z,94.65
2018-09-22T05:38:27.473Z,94.93
2018-09-22T05:39:27.410Z,94.93
2018-09-22T05:40:27.218Z,95.27
2018-09-22T05:41:27.402Z,94.89
2018-09-22T05:42:27.096Z,94.74
2018-09-22T05:43:27.024Z,95.12
2018-09-22T05:44:26.919Z,94.55
2018-09-22T05:45:26.987Z,94.65
2018-09-22T05:46:26.819Z,94.65
2018-09-22T05:47:26.748Z,94.65
2018-09-22T05:48:26.581Z,94.84
2018-09-22T05:49:26.588Z,95.03
2018-09-22T05:50:26.414Z,95.32
2018-09-22T05:51:26.392Z,95.22
2018-09-22T05:52:26.272Z,95.12
2018-09-22T05:53:26.285Z,95.61
2018-09-22T05:54:26.081Z,95.03
2018-09-22T05:55:26.138Z,94.84
2018-09-22T05:56:25.942Z,94.93
2018-09-22T05:57:25.921Z,94.84
2018-09-22T05:58:25.760Z,94.93
2018-09-22T05:59:25.699Z,94.74
2018-09-22T06:00:25.600Z,94.74
2018-09-22T06:01:25.531Z,94.79
2018-09-22T06:02:25.461Z,94.41
2018-09-22T06:03:25.479Z,94.31
2018-09-22T06:04:25.276Z,94.60
2018-09-22T06:05:25.236Z,94.41
2018-09-22T06:06:25.118Z,94.02
2018-09-22T06:07:26.091Z,94.02
2018-09-22T06:08:24.982Z,93.45
2018-09-22T06:09:24.978Z,93.74
2018-09-22T06:10:24.801Z,93.65
2018-09-22T06:11:24.758Z,93.65
2018-09-22T06:12:24.626Z,93.26
2018-09-22T06:13:24.595Z,92.79
2018-09-22T06:14:24.467Z,92.93
2018-09-22T06:15:24.474Z,92.69
2018-09-22T06:16:24.308Z,93.07
2018-09-22T06:17:24.286Z,93.65
2018-09-22T06:18:24.201Z,92.83
2018-09-22T06:21:06.058Z,92.74
2018-09-22T06:22:06.097Z,92.16
2018-09-22T06:23:05.938Z,93.02
2018-09-22T06:24:05.914Z,92.40
2018-09-22T06:25:05.726Z,92.93
2018-09-22T06:26:05.708Z,93.88
2018-09-22T06:27:05.566Z,92.83
2018-09-22T06:28:05.551Z,92.59
2018-09-22T06:29:05.407Z,93.55
2018-09-22T06:30:05.426Z,92.50
2018-09-22T06:31:05.253Z,92.83
2018-09-22T06:32:05.236Z,94.36
2018-09-22T06:33:05.089Z,94.26
2018-09-22T06:34:05.085Z,92.74
2018-09-22T06:35:04.915Z,92.45
2018-09-22T06:36:04.952Z,91.88
2018-09-22T06:37:04.755Z,92.35
2018-09-22T06:38:04.762Z,92.16
2018-09-22T06:39:04.731Z,92.45
2018-09-22T06:40:04.576Z,91.97
2018-09-22T06:41:04.430Z,91.78
2018-09-22T06:42:04.380Z,91.97
2018-09-22T06:43:04.268Z,91.20
2018-09-22T06:44:04.334Z,91.97
2018-09-22T06:45:04.126Z,91.68
2018-09-22T06:46:04.149Z,92.16
2018-09-22T06:47:03.962Z,92.07
2018-09-22T06:48:03.910Z,91.49
2018-09-22T06:49:03.828Z,91.49
2018-09-22T06:50:03.834Z,91.59
2018-09-22T06:51:03.635Z,91.39
2018-09-22T06:52:03.621Z,91.11
2018-09-22T06:53:03.503Z,91.68
2018-09-22T06:54:03.438Z,91.02
2018-09-22T06:55:03.321Z,90.92
2018-09-22T06:56:03.245Z,91.35
2018-09-22T06:57:03.148Z,91.16
2018-09-22T06:58:03.065Z,90.58
2018-09-22T06:59:03.014Z,90.48
2018-09-22T07:00:02.923Z,90.20
2018-09-22T07:01:02.816Z,89.53
2018-09-22T07:02:02.771Z,89.72
2018-09-22T07:03:02.661Z,90.30
2018-09-22T07:04:02.683Z,89.53
2018-09-22T07:05:02.548Z,89.19
2018-09-22T07:06:02.509Z,88.71
2018-09-22T07:07:02.338Z,89.48
2018-09-22T07:09:44.584Z,87.08
2018-09-22T07:10:44.488Z,87.32
2018-09-22T07:11:44.431Z,87.32
2018-09-22T07:15:27.584Z,87.08
2018-09-22T07:16:48.458Z,87.27
2018-09-22T07:17:48.385Z,87.85
2018-09-22T07:20:09.574Z,88.52
2018-09-22T07:39:05.914Z,88.04
2018-09-22T07:40:06.868Z,88.43
2018-09-22T07:41:05.773Z,87.23
2018-09-22T07:42:05.690Z,86.36
2018-09-22T07:43:05.593Z,84.91
2018-09-22T07:44:05.529Z,83.95
2018-09-22T07:45:05.439Z,84.49
2018-09-22T07:46:05.374Z,84.39
2018-09-22T07:47:05.271Z,84.49
2018-09-22T07:48:05.206Z,84.11
2018-09-22T07:49:05.125Z,83.86
2018-09-22T07:50:05.112Z,83.48
2018-09-22T07:51:04.965Z,83.48
2018-09-22T07:52:04.876Z,83.19
2018-09-22T07:53:04.786Z,83.58
2018-09-22T07:55:47.071Z,84.15
2018-09-22T07:56:48.043Z,83.48
2018-09-22T07:57:46.921Z,83.09
2018-09-22T07:58:46.836Z,82.81
2018-09-22T07:59:46.757Z,82.03
2018-09-22T08:24:08.264Z,83.25
2018-09-22T08:25:08.199Z,83.25
2018-09-22T08:27:50.093Z,84.20
2018-09-22T08:29:10.993Z,83.76
2018-09-22T08:30:10.903Z,83.48
2018-09-22T08:30:49.861Z,83.86
2018-09-22T08:31:49.771Z,83.58
2018-09-22T08:32:50.722Z,84.11
2018-09-22T08:33:49.614Z,83.29
2018-09-22T08:34:49.536Z,83.48
2018-09-22T08:35:49.443Z,82.90
2018-09-22T08:38:31.603Z,82.37
2018-09-22T08:39:31.529Z,81.51
2018-09-22T08:40:31.424Z,80.20
2018-09-22T08:43:13.606Z,78.23
2018-09-22T08:44:13.589Z,77.21
2018-09-22T08:45:13.427Z,76.64
2018-09-22T08:47:55.582Z,75.13
2018-09-22T08:48:56.540Z,74.02
2018-09-22T08:49:55.470Z,73.19
2018-09-22T08:52:37.590Z,69.54
2018-09-22T08:53:38.541Z,68.32
2018-09-22T08:54:37.428Z,66.75
2018-09-22T09:06:53.384Z,65.08
2018-09-22T09:07:53.272Z,64.76
2018-09-22T09:08:54.242Z,65.98
2018-09-22T09:09:53.138Z,66.27
2018-09-22T09:20:59.198Z,59.53
2018-09-22T09:23:41.097Z,57.82
2018-09-22T09:24:41.059Z,58.54
2018-09-22T09:25:40.947Z,57.54
2018-09-22T09:28:23.115Z,58.86
2018-09-22T09:29:23.040Z,57.57
2018-09-22T09:30:23.032Z,58.28
2018-09-22T09:31:22.903Z,58.18
2018-09-22T09:32:22.832Z,58.25
2018-09-22T09:33:22.755Z,57.79
2018-09-22T09:34:22.681Z,57.48
2018-09-22T09:35:22.638Z,58.15
2018-09-22T09:36:22.513Z,58.64
2018-09-22T09:37:22.447Z,58.76
2018-09-22T09:38:22.364Z,59.02
2018-09-22T09:39:22.300Z,59.74
2018-09-22T09:40:22.239Z,60.38
2018-09-22T09:41:22.161Z,61.13
2018-09-22T09:42:22.093Z,61.38
2018-09-22T09:45:04.131Z,63.85
2018-09-22T09:46:04.041Z,64.21
2018-09-22T09:47:03.973Z,64.89
2018-09-22T09:48:03.905Z,67.07
2018-09-22T09:49:03.826Z,67.03
2018-09-22T09:50:04.760Z,67.58
2018-09-22T09:51:03.708Z,68.15
2018-09-22T09:52:03.599Z,67.64
2018-09-22T09:53:03.548Z,67.48
2018-09-22T09:54:03.452Z,67.68
2018-09-22T09:55:03.389Z,67.10
2018-09-22T09:56:03.299Z,67.10
2018-09-22T09:57:03.244Z,65.75
2018-09-22T09:58:03.157Z,66.00
2018-09-22T09:59:03.056Z,66.39
2018-09-22T10:00:02.997Z,65.50
2018-09-22T10:01:02.936Z,65.50
2018-09-22T10:02:02.848Z,64.92
2018-09-22T10:03:02.758Z,65.56
2018-09-22T10:05:44.615Z,65.05
2018-09-22T10:06:44.592Z,64.95
2018-09-22T10:07:44.469Z,63.60
2018-09-22T10:08:44.400Z,63.82
2018-09-22T10:09:44.317Z,63.15
2018-09-22T10:10:44.259Z,62.51
2018-09-22T10:11:44.206Z,61.32
2018-09-22T10:12:44.091Z,61.32
2018-09-22T10:13:44.014Z,60.83
2018-09-22T10:16:26.139Z,59.30
2018-09-22T10:19:08.126Z,59.88
2018-09-22T10:20:08.106Z,61.22
2018-09-22T10:21:07.989Z,61.25
2018-09-22T10:22:07.930Z,60.20
2018-09-22T10:23:07.862Z,59.87
2018-09-22T10:24:07.760Z,59.30
2018-09-22T10:25:07.670Z,58.14
2018-09-22T10:26:07.705Z,60.46
2018-09-22T10:27:07.554Z,62.35
2018-09-22T10:28:07.487Z,62.83
2018-09-22T10:29:07.391Z,63.41
2018-09-22T10:30:07.286Z,62.45
2018-09-22T10:31:07.220Z,60.16
2018-09-22T10:32:07.177Z,59.90
2018-09-22T10:33:07.048Z,59.35
2018-09-22T10:35:49.166Z,58.45
2018-09-22T10:36:49.079Z,58.58
2018-09-22T10:37:49.006Z,59.13
2018-09-22T10:38:49.937Z,59.58
2018-09-22T10:39:48.893Z,61.29
2018-09-22T10:40:48.772Z,62.51
2018-09-22T10:41:48.678Z,62.41
2018-09-22T10:42:49.685Z,62.38
2018-09-22T10:43:48.528Z,63.34
2018-09-22T10:44:48.454Z,63.22
2018-09-22T10:45:48.379Z,64.50
2018-09-22T10:46:48.305Z,64.08
2018-09-22T10:47:48.270Z,65.05
2018-09-22T10:48:48.191Z,65.59
2018-09-22T10:49:48.084Z,65.78
2018-09-22T10:50:48.006Z,66.46
2018-09-22T10:51:47.923Z,66.30
2018-09-22T10:54:30.165Z,67.48
2018-09-22T10:55:30.066Z,67.38
2018-09-22T10:56:30.005Z,67.00
2018-09-22T10:57:29.974Z,68.15
2018-09-22T10:58:29.849Z,68.06
2018-09-22T10:59:29.773Z,69.12
2018-09-22T11:00:29.676Z,68.35
2018-09-22T11:01:29.601Z,68.70
2018-09-22T11:02:29.558Z,69.21
2018-09-22T11:03:29.553Z,69.18
2018-09-22T11:04:29.391Z,69.69
2018-09-22T11:05:29.307Z,69.40
2018-09-22T11:06:29.214Z,69.18
2018-09-22T11:07:29.133Z,69.31
2018-09-22T11:08:29.075Z,69.12
2018-09-22T11:09:29.007Z,68.09
2018-09-22T11:10:28.906Z,66.81
2018-09-22T11:11:28.827Z,66.81
2018-09-22T11:12:28.746Z,67.51
2018-09-22T11:13:28.701Z,68.29
2018-09-22T11:14:28.590Z,68.15
2018-09-22T11:15:28.533Z,68.92
2018-09-22T11:16:28.437Z,70.14
2018-09-22T11:17:28.356Z,71.00
2018-09-22T11:18:28.282Z,70.62
2018-09-22T11:19:28.232Z,71.19
2018-09-22T11:20:28.140Z,71.10
2018-09-22T11:21:28.062Z,71.19
2018-09-22T11:22:27.962Z,70.62
2018-09-22T11:23:27.896Z,70.62
2018-09-22T11:24:27.965Z,70.46
2018-09-22T11:27:09.658Z,69.44
2018-09-22T11:28:09.571Z,68.76
2018-09-22T11:29:09.527Z,68.86
2018-09-22T11:30:09.463Z,68.90
2018-09-22T11:31:09.327Z,68.22
2018-09-22T11:32:09.282Z,67.55
2018-09-22T11:33:09.197Z,66.88
2018-09-22T11:35:51.158Z,66.81
2018-09-22T11:36:51.124Z,65.56
2018-09-22T11:37:51.003Z,64.82
2018-09-22T11:38:50.971Z,64.86
2018-09-22T11:39:50.871Z,64.21
2018-09-22T11:40:50.765Z,66.10
2018-09-22T11:41:50.685Z,67.51
2018-09-22T11:42:50.635Z,67.51
2018-09-22T11:43:50.525Z,67.65
2018-09-22T11:44:50.467Z,67.55
2018-09-22T11:45:50.379Z,66.88
2018-09-22T11:46:51.314Z,67.65
2018-09-22T11:47:50.219Z,67.80
2018-09-22T11:48:50.141Z,68.13
2018-09-22T11:49:50.069Z,68.13
2018-09-22T11:52:32.194Z,68.38
2018-09-22T11:55:14.343Z,69.31
2018-09-22T11:56:14.093Z,70.46
2018-09-22T11:57:14.034Z,70.52
2018-09-22T11:58:13.925Z,70.33
2018-09-22T11:59:13.840Z,70.81
2018-09-22T12:00:13.808Z,70.90
2018-09-22T12:01:13.698Z,70.90
2018-09-22T12:03:55.683Z,70.62
2018-09-22T12:04:55.667Z,70.43
2018-09-22T12:05:55.548Z,70.43
2018-09-22T12:08:37.855Z,70.43
2018-09-22T12:09:38.308Z,70.43
2018-09-22T12:10:38.299Z,70.04
2018-09-22T12:13:19.662Z,70.87
2018-09-22T12:14:19.605Z,70.58
2018-09-22T12:15:19.539Z,71.06
2018-09-22T12:16:19.445Z,70.49
2018-09-22T12:17:19.349Z,71.64
2018-09-22T12:18:19.283Z,71.51
2018-09-22T12:19:19.222Z,71.93
2018-09-22T12:20:20.136Z,72.85
2018-09-22T12:21:19.091Z,73.04
2018-09-22T12:24:01.175Z,74.96
2018-09-22T12:25:01.124Z,75.25
2018-09-22T12:26:01.061Z,75.54
2018-09-22T12:27:00.944Z,74.77
2018-09-22T12:28:00.849Z,74.68
2018-09-22T12:29:00.790Z,75.73
2018-09-22T12:30:00.691Z,75.45
2018-09-22T12:31:00.633Z,75.06
2018-09-22T12:32:00.559Z,74.39
2018-09-22T12:33:00.503Z,74.19
2018-09-22T12:34:00.371Z,75.54
2018-09-22T12:35:00.332Z,74.77
2018-09-22T12:36:00.242Z,74.96
2018-09-22T12:37:00.143Z,73.62
2018-09-22T12:38:00.056Z,73.72
2018-09-22T12:40:42.201Z,73.04
2018-09-22T12:43:24.177Z,74.10
2018-09-22T12:44:24.095Z,73.81
2018-09-22T12:45:24.019Z,73.81
2018-09-22T12:46:24.956Z,72.95
2018-09-22T12:47:23.879Z,72.75
2018-09-22T12:48:23.780Z,72.75
2018-09-22T12:49:23.718Z,72.85
2018-09-22T12:50:23.631Z,72.47
2018-09-22T12:51:23.569Z,72.41
2018-09-22T12:54:05.706Z,72.89
2018-09-22T12:55:05.601Z,72.50
2018-09-22T12:56:05.552Z,73.08
2018-09-22T12:57:05.452Z,72.31
2018-09-22T12:58:05.369Z,71.93
2018-09-22T12:59:05.278Z,71.73
2018-09-22T13:00:05.198Z,71.83
2018-09-22T13:01:05.170Z,71.93
2018-09-22T13:02:05.053Z,71.55
2018-09-22T13:03:04.967Z,71.83
2018-09-22T13:04:04.895Z,72.12
2018-09-22T13:05:04.806Z,71.55
2018-09-22T13:06:04.733Z,71.83
2018-09-22T13:07:05.684Z,71.87
2018-09-22T13:08:04.623Z,71.93
2018-09-22T13:09:04.488Z,70.58
2018-09-22T13:10:04.400Z,70.68
2018-09-22T13:12:46.714Z,71.55
2018-09-22T13:13:46.614Z,71.55
2018-09-22T13:14:46.517Z,71.64
2018-09-22T13:15:46.452Z,71.06
2018-09-22T13:16:46.397Z,71.16
2018-09-22T13:17:46.299Z,71.83
2018-09-22T13:18:46.240Z,71.35
2018-09-22T13:19:46.142Z,71.93
2018-09-22T13:20:46.047Z,71.89
2018-09-22T13:21:48.017Z,71.45
2018-09-22T13:22:45.897Z,72.22
2018-09-22T13:23:45.824Z,72.28
2018-09-22T13:24:45.753Z,72.75
2018-09-22T13:25:45.708Z,74.73
2018-09-22T13:26:45.643Z,77.13
2018-09-22T13:27:46.518Z,79.21
2018-09-22T13:28:45.418Z,80.89
2018-09-22T13:29:45.332Z,83.15
2018-09-22T13:30:45.248Z,84.49
2018-09-22T13:33:27.199Z,85.21
2018-09-22T13:36:09.187Z,86.02
2018-09-22T13:37:09.183Z,85.25
2018-09-22T13:38:09.059Z,84.92
2018-09-22T13:39:08.963Z,86.27
2018-09-22T13:40:08.868Z,86.55
2018-09-22T13:42:50.719Z,85.88
2018-09-22T13:45:32.716Z,87.03
2018-09-22T13:48:14.721Z,84.45
2018-09-22T13:49:14.640Z,85.31
2018-09-22T13:50:14.545Z,85.88
2018-09-22T13:52:56.715Z,86.41
2018-09-22T13:53:56.646Z,85.94
2018-09-22T13:54:56.566Z,86.61
2018-09-22T13:57:38.716Z,87.62
2018-09-22T13:58:38.648Z,87.71
2018-09-22T13:59:38.549Z,88.57
2018-09-22T14:00:38.469Z,89.05
2018-09-22T14:01:38.399Z,87.43
2018-09-22T14:02:38.324Z,87.23
2018-09-22T14:03:38.315Z,87.62
2018-09-22T14:06:20.213Z,88.00
2018-09-22T14:09:02.238Z,87.33
2018-09-22T14:10:02.156Z,87.43
2018-09-22T14:11:02.043Z,87.90
2018-09-22T14:12:01.968Z,87.18
2018-09-22T14:13:01.875Z,87.85
2018-09-22T14:14:01.828Z,89.09
2018-09-22T14:15:01.725Z,89.29
2018-09-22T14:17:43.718Z,88.81
2018-09-22T14:18:43.658Z,87.85
2018-09-22T14:19:43.570Z,88.71
2018-09-22T14:22:25.701Z,88.81
2018-09-22T14:23:25.671Z,88.13
2018-09-22T14:24:25.577Z,89.09
2018-09-22T14:25:25.474Z,90.24
2018-09-22T14:26:25.384Z,90.24
2018-09-22T14:27:25.305Z,89.58
2018-09-22T14:28:25.231Z,88.71
2018-09-22T14:29:25.175Z,87.85
2018-09-22T14:30:25.062Z,88.81
2018-09-22T14:31:25.011Z,89.00
2018-09-22T14:32:24.898Z,89.00
2018-09-22T14:33:24.827Z,89.48
2018-09-22T14:34:24.767Z,88.90
2018-09-22T14:35:24.710Z,88.81
2018-09-22T14:36:24.588Z,88.23
2018-09-22T14:37:24.516Z,87.85
2018-09-22T14:38:24.421Z,87.85
2018-09-22T14:39:24.456Z,87.85
2018-09-22T14:40:24.281Z,86.99
2018-09-22T14:41:24.203Z,88.04
2018-09-22T14:42:24.116Z,88.23
2018-09-22T14:45:06.230Z,88.28
2018-09-22T14:46:06.141Z,87.80
2018-09-22T14:47:06.055Z,88.18
2018-09-22T14:48:05.998Z,88.76
2018-09-22T14:49:05.907Z,88.56
2018-09-22T14:50:05.854Z,89.38
2018-09-22T14:51:05.733Z,90.15
2018-09-22T14:53:47.715Z,90.63
2018-09-22T14:54:48.685Z,91.01
2018-09-22T14:55:47.545Z,92.06
2018-09-22T14:56:47.469Z,91.97
2018-09-22T14:57:47.396Z,92.25
2018-09-22T14:58:47.331Z,93.02
2018-09-22T14:59:47.253Z,93.59
2018-09-22T15:00:47.184Z,93.30
2018-09-22T15:01:47.078Z,93.88
2018-09-22T15:04:29.227Z,94.55
2018-09-22T15:05:30.187Z,94.65
2018-09-22T15:06:29.063Z,94.26
2018-09-22T15:07:28.982Z,94.17
2018-09-22T15:08:28.893Z,94.36
2018-09-22T15:09:28.836Z,94.17
2018-09-22T15:10:28.755Z,94.55
2018-09-22T15:11:28.665Z,95.03
2018-09-22T15:12:28.571Z,94.65
2018-09-22T15:15:10.731Z,95.36
2018-09-22T15:16:11.685Z,95.79
2018-09-22T15:17:10.574Z,95.03
2018-09-22T15:19:52.828Z,95.12
2018-09-22T15:22:34.766Z,96.47
2018-09-22T15:23:34.668Z,96.08
2018-09-22T15:24:34.554Z,96.51
2018-09-22T15:25:34.493Z,97.28
2018-09-22T15:26:34.398Z,97.33
2018-09-22T15:27:35.494Z,96.75
2018-09-22T15:28:34.242Z,96.56
2018-09-22T15:31:16.284Z,97.23
2018-09-22T15:32:16.176Z,96.56
2018-09-22T15:33:16.071Z,97.52
2018-09-22T15:34:16.111Z,96.84
2018-09-22T15:35:15.915Z,96.94
2018-09-22T15:36:15.837Z,96.56
2018-09-22T15:37:15.861Z,97.52
2018-09-22T15:38:15.664Z,96.84
2018-09-22T15:39:15.587Z,96.75
2018-09-22T15:41:57.722Z,97.04
2018-09-22T15:42:58.667Z,97.52
2018-09-22T15:43:57.568Z,96.94
2018-09-22T15:44:57.496Z,97.33
2018-09-22T15:45:57.424Z,97.23
2018-09-22T15:46:57.344Z,97.80
2018-09-22T15:47:57.375Z,97.80
2018-09-22T15:50:39.233Z,98.76
2018-09-22T15:51:39.162Z,99.62
2018-09-22T15:52:39.084Z,97.71
2018-09-22T15:53:39.020Z,97.90
2018-09-22T15:54:38.909Z,99.00
2018-09-22T15:55:38.834Z,99.99
2018-09-22T15:56:38.741Z,99.81
2018-09-22T15:57:38.700Z,99.72
2018-09-22T15:58:38.593Z,99.10
2018-09-22T15:59:38.512Z,99.91
2018-09-22T16:00:38.426Z,99.00
2018-09-22T16:03:20.751Z,98.14
2018-09-22T16:04:20.655Z,99.00
2018-09-22T16:05:20.566Z,99.00
2018-09-22T16:06:20.517Z,99.57
2018-09-22T16:07:20.402Z,99.99